sensor_id;sensor_type;location;lat;lon;timestamp;P1;durP1;ratioP1;P2;durP2;ratioP2
32790;SDS011;19143;59.322;14.502;2023-03-12T00:01:43;3.73;;;0.90;;
32790;SDS011;19143;59.322;14.502;2023-03-12T00:04:10;1.00;;;1.00;;
32790;SDS011;19143;59.322;14.502;2023-03-12T00:06:38;1.40;;;1.30;;
32790;SDS011;19143;59.322;14.502;2023-03-12T00:09:05;1.20;;;1.10;;
32790;SDS011;19143;59.322;14.502;2023-03-12T00:11:33;1.13;;;0.90;;
32790;SDS011;19143;59.322;14.502;2023-03-12T00:14:00;1.13;;;1.13;;
32790;SDS011;19143;59.322;14.502;2023-03-12T00:16:27;1.03;;;0.87;;
32790;SDS011;19143;59.322;14.502;2023-03-12T00:18:54;1.10;;;1.10;;
32790;SDS011;19143;59.322;14.502;2023-03-12T00:21:21;1.07;;;1.07;;
32790;SDS011;19143;59.322;14.502;2023-03-12T00:23:50;1.20;;;1.00;;
32790;SDS011;19143;59.322;14.502;2023-03-12T00:26:17;1.40;;;1.30;;
32790;SDS011;19143;59.322;14.502;2023-03-12T00:28:46;3.67;;;1.30;;
32790;SDS011;19143;59.322;14.502;2023-03-12T00:31:13;0.97;;;0.97;;
32790;SDS011;19143;59.322;14.502;2023-03-12T00:33:40;0.80;;;0.80;;
32790;SDS011;19143;59.322;14.502;2023-03-12T00:36:07;1.17;;;1.10;;
32790;SDS011;19143;59.322;14.502;2023-03-12T00:38:33;1.00;;;1.00;;
32790;SDS011;19143;59.322;14.502;2023-03-12T00:41:01;1.60;;;1.20;;
32790;SDS011;19143;59.322;14.502;2023-03-12T00:43:28;1.43;;;1.00;;
32790;SDS011;19143;59.322;14.502;2023-03-12T00:45:55;0.97;;;0.90;;
32790;SDS011;19143;59.322;14.502;2023-03-12T00:48:21;0.90;;;0.90;;
32790;SDS011;19143;59.322;14.502;2023-03-12T00:50:49;0.90;;;0.90;;
32790;SDS011;19143;59.322;14.502;2023-03-12T00:53:16;0.70;;;0.70;;
32790;SDS011;19143;59.322;14.502;2023-03-12T00:55:42;1.97;;;1.20;;
32790;SDS011;19143;59.322;14.502;2023-03-12T00:58:10;0.93;;;0.93;;
32790;SDS011;19143;59.322;14.502;2023-03-12T01:00:37;1.40;;;1.30;;
32790;SDS011;19143;59.322;14.502;2023-03-12T01:03:04;1.10;;;1.00;;
32790;SDS011;19143;59.322;14.502;2023-03-12T01:05:31;1.00;;;1.00;;
32790;SDS011;19143;59.322;14.502;2023-03-12T01:08:01;1.20;;;1.10;;
32790;SDS011;19143;59.322;14.502;2023-03-12T01:10:28;2.37;;;1.10;;
32790;SDS011;19143;59.322;14.502;2023-03-12T01:12:55;1.10;;;1.00;;
32790;SDS011;19143;59.322;14.502;2023-03-12T01:15:23;1.40;;;1.07;;
32790;SDS011;19143;59.322;14.502;2023-03-12T01:17:50;1.00;;;1.00;;
32790;SDS011;19143;59.322;14.502;2023-03-12T01:20:16;0.90;;;0.90;;
32790;SDS011;19143;59.322;14.502;2023-03-12T01:22:43;1.00;;;1.00;;
32790;SDS011;19143;59.322;14.502;2023-03-12T01:25:10;2.47;;;0.87;;
32790;SDS011;19143;59.322;14.502;2023-03-12T01:27:37;2.60;;;1.10;;
32790;SDS011;19143;59.322;14.502;2023-03-12T01:30:04;0.90;;;0.90;;
32790;SDS011;19143;59.322;14.502;2023-03-12T01:32:32;1.10;;;1.10;;
32790;SDS011;19143;59.322;14.502;2023-03-12T01:34:59;0.90;;;0.90;;
32790;SDS011;19143;59.322;14.502;2023-03-12T01:37:26;1.07;;;0.97;;
32790;SDS011;19143;59.322;14.502;2023-03-12T01:39:52;1.20;;;1.10;;
32790;SDS011;19143;59.322;14.502;2023-03-12T01:42:19;1.37;;;1.37;;
32790;SDS011;19143;59.322;14.502;2023-03-12T01:44:49;2.33;;;0.87;;
32790;SDS011;19143;59.322;14.502;2023-03-12T01:47:17;1.00;;;1.00;;
32790;SDS011;19143;59.322;14.502;2023-03-12T01:49:45;1.00;;;1.00;;
32790;SDS011;19143;59.322;14.502;2023-03-12T01:52:12;0.90;;;0.90;;
32790;SDS011;19143;59.322;14.502;2023-03-12T01:54:47;1.03;;;0.90;;
32790;SDS011;19143;59.322;14.502;2023-03-12T01:57:16;13.53;;;1.30;;
32790;SDS011;19143;59.322;14.502;2023-03-12T01:59:44;0.93;;;0.93;;
32790;SDS011;19143;59.322;14.502;2023-03-12T02:02:12;0.90;;;0.90;;
32790;SDS011;19143;59.322;14.502;2023-03-12T02:04:39;0.90;;;0.90;;
32790;SDS011;19143;59.322;14.502;2023-03-12T02:07:09;0.90;;;0.90;;
32790;SDS011;19143;59.322;14.502;2023-03-12T02:09:37;2.10;;;1.20;;
32790;SDS011;19143;59.322;14.502;2023-03-12T02:12:05;4.10;;;1.47;;
32790;SDS011;19143;59.322;14.502;2023-03-12T02:14:32;0.80;;;0.80;;
32790;SDS011;19143;59.322;14.502;2023-03-12T02:16:59;1.47;;;1.00;;
32790;SDS011;19143;59.322;14.502;2023-03-12T02:19:32;1.00;;;1.00;;
32790;SDS011;19143;59.322;14.502;2023-03-12T02:21:59;0.90;;;0.90;;
32790;SDS011;19143;59.322;14.502;2023-03-12T02:24:29;1.40;;;1.30;;
32790;SDS011;19143;59.322;14.502;2023-03-12T02:26:59;1.00;;;0.97;;
32790;SDS011;19143;59.322;14.502;2023-03-12T02:29:26;0.80;;;0.80;;
32790;SDS011;19143;59.322;14.502;2023-03-12T02:31:55;1.00;;;1.00;;
32790;SDS011;19143;59.322;14.502;2023-03-12T02:34:23;1.10;;;1.00;;
32790;SDS011;19143;59.322;14.502;2023-03-12T02:36:49;1.03;;;1.03;;
32790;SDS011;19143;59.322;14.502;2023-03-12T02:39:16;1.07;;;1.07;;
32790;SDS011;19143;59.322;14.502;2023-03-12T02:41:43;0.90;;;0.90;;
32790;SDS011;19143;59.322;14.502;2023-03-12T02:44:13;1.00;;;1.00;;
32790;SDS011;19143;59.322;14.502;2023-03-12T02:46:41;1.77;;;1.10;;
32790;SDS011;19143;59.322;14.502;2023-03-12T02:49:08;2.10;;;1.07;;
32790;SDS011;19143;59.322;14.502;2023-03-12T02:51:37;1.20;;;0.80;;
32790;SDS011;19143;59.322;14.502;2023-03-12T02:54:04;1.23;;;1.10;;
32790;SDS011;19143;59.322;14.502;2023-03-12T02:56:30;1.70;;;1.00;;
32790;SDS011;19143;59.322;14.502;2023-03-12T02:58:57;0.90;;;0.90;;
32790;SDS011;19143;59.322;14.502;2023-03-12T03:01:25;0.90;;;0.90;;
32790;SDS011;19143;59.322;14.502;2023-03-12T03:03:52;0.80;;;0.80;;
32790;SDS011;19143;59.322;14.502;2023-03-12T03:06:19;0.90;;;0.90;;
32790;SDS011;19143;59.322;14.502;2023-03-12T03:08:46;0.90;;;0.90;;
32790;SDS011;19143;59.322;14.502;2023-03-12T03:11:13;1.00;;;0.90;;
32790;SDS011;19143;59.322;14.502;2023-03-12T03:13:40;0.80;;;0.80;;
32790;SDS011;19143;59.322;14.502;2023-03-12T03:16:06;1.43;;;0.90;;
32790;SDS011;19143;59.322;14.502;2023-03-12T03:18:35;1.00;;;1.00;;
32790;SDS011;19143;59.322;14.502;2023-03-12T03:21:02;0.80;;;0.80;;
32790;SDS011;19143;59.322;14.502;2023-03-12T03:23:30;1.27;;;0.87;;
32790;SDS011;19143;59.322;14.502;2023-03-12T03:26:04;1.60;;;1.00;;
32790;SDS011;19143;59.322;14.502;2023-03-12T03:28:30;1.03;;;0.90;;
32790;SDS011;19143;59.322;14.502;2023-03-12T03:30:57;1.13;;;0.90;;
32790;SDS011;19143;59.322;14.502;2023-03-12T03:33:26;0.93;;;0.93;;
32790;SDS011;19143;59.322;14.502;2023-03-12T03:35:54;0.80;;;0.80;;
32790;SDS011;19143;59.322;14.502;2023-03-12T03:38:21;0.90;;;0.90;;
32790;SDS011;19143;59.322;14.502;2023-03-12T03:40:47;3.17;;;0.93;;
32790;SDS011;19143;59.322;14.502;2023-03-12T03:43:14;1.03;;;0.83;;
32790;SDS011;19143;59.322;14.502;2023-03-12T03:45:41;0.97;;;0.97;;
32790;SDS011;19143;59.322;14.502;2023-03-12T03:48:09;0.83;;;0.83;;
32790;SDS011;19143;59.322;14.502;2023-03-12T03:50:36;0.70;;;0.70;;
32790;SDS011;19143;59.322;14.502;2023-03-12T03:53:04;5.73;;;0.97;;
32790;SDS011;19143;59.322;14.502;2023-03-12T03:55:30;0.93;;;0.93;;
32790;SDS011;19143;59.322;14.502;2023-03-12T03:57:57;0.70;;;0.70;;
32790;SDS011;19143;59.322;14.502;2023-03-12T04:00:24;1.00;;;1.00;;
32790;SDS011;19143;59.322;14.502;2023-03-12T04:02:50;0.90;;;0.90;;
32790;SDS011;19143;59.322;14.502;2023-03-12T04:05:17;3.13;;;0.90;;
32790;SDS011;19143;59.322;14.502;2023-03-12T04:07:44;0.97;;;0.97;;
32790;SDS011;19143;59.322;14.502;2023-03-12T04:10:12;1.00;;;1.00;;
32790;SDS011;19143;59.322;14.502;2023-03-12T04:12:39;1.27;;;1.00;;
32790;SDS011;19143;59.322;14.502;2023-03-12T04:15:06;1.90;;;1.07;;
32790;SDS011;19143;59.322;14.502;2023-03-12T04:17:33;0.93;;;0.90;;
32790;SDS011;19143;59.322;14.502;2023-03-12T04:20:00;0.70;;;0.70;;
32790;SDS011;19143;59.322;14.502;2023-03-12T04:22:26;2.27;;;1.03;;
32790;SDS011;19143;59.322;14.502;2023-03-12T04:24:53;1.60;;;0.90;;
32790;SDS011;19143;59.322;14.502;2023-03-12T04:27:21;1.30;;;1.17;;
32790;SDS011;19143;59.322;14.502;2023-03-12T04:29:47;0.93;;;0.93;;
32790;SDS011;19143;59.322;14.502;2023-03-12T04:32:14;0.93;;;0.93;;
32790;SDS011;19143;59.322;14.502;2023-03-12T04:34:40;0.60;;;0.60;;
32790;SDS011;19143;59.322;14.502;2023-03-12T04:37:07;0.67;;;0.60;;
32790;SDS011;19143;59.322;14.502;2023-03-12T04:39:35;1.00;;;1.00;;
32790;SDS011;19143;59.322;14.502;2023-03-12T04:42:02;0.73;;;0.73;;
32790;SDS011;19143;59.322;14.502;2023-03-12T04:44:30;0.87;;;0.87;;
32790;SDS011;19143;59.322;14.502;2023-03-12T04:46:56;0.77;;;0.77;;
32790;SDS011;19143;59.322;14.502;2023-03-12T04:49:23;0.97;;;0.97;;
32790;SDS011;19143;59.322;14.502;2023-03-12T04:51:49;0.90;;;0.90;;
32790;SDS011;19143;59.322;14.502;2023-03-12T04:54:16;0.73;;;0.73;;
32790;SDS011;19143;59.322;14.502;2023-03-12T04:56:45;1.00;;;0.90;;
32790;SDS011;19143;59.322;14.502;2023-03-12T04:59:11;0.90;;;0.90;;
32790;SDS011;19143;59.322;14.502;2023-03-12T05:01:39;0.70;;;0.70;;
32790;SDS011;19143;59.322;14.502;2023-03-12T05:04:06;0.90;;;0.90;;
32790;SDS011;19143;59.322;14.502;2023-03-12T05:06:33;1.20;;;0.97;;
32790;SDS011;19143;59.322;14.502;2023-03-12T05:09:00;2.73;;;1.00;;
32790;SDS011;19143;59.322;14.502;2023-03-12T05:11:26;0.77;;;0.77;;
32790;SDS011;19143;59.322;14.502;2023-03-12T05:13:53;3.70;;;0.97;;
32790;SDS011;19143;59.322;14.502;2023-03-12T05:16:19;2.10;;;1.23;;
32790;SDS011;19143;59.322;14.502;2023-03-12T05:18:48;1.10;;;1.10;;
32790;SDS011;19143;59.322;14.502;2023-03-12T05:21:15;1.53;;;1.00;;
32790;SDS011;19143;59.322;14.502;2023-03-12T05:23:42;0.80;;;0.80;;
32790;SDS011;19143;59.322;14.502;2023-03-12T05:26:14;1.03;;;0.93;;
32790;SDS011;19143;59.322;14.502;2023-03-12T05:28:41;1.10;;;0.87;;
32790;SDS011;19143;59.322;14.502;2023-03-12T05:31:08;0.80;;;0.80;;
32790;SDS011;19143;59.322;14.502;2023-03-12T05:33:35;0.60;;;0.60;;
32790;SDS011;19143;59.322;14.502;2023-03-12T05:36:03;0.77;;;0.77;;
32790;SDS011;19143;59.322;14.502;2023-03-12T05:38:30;1.53;;;0.80;;
32790;SDS011;19143;59.322;14.502;2023-03-12T05:40:57;0.97;;;0.97;;
32790;SDS011;19143;59.322;14.502;2023-03-12T05:43:24;2.40;;;1.23;;
32790;SDS011;19143;59.322;14.502;2023-03-12T05:45:50;1.40;;;1.20;;
32790;SDS011;19143;59.322;14.502;2023-03-12T05:48:17;0.90;;;0.90;;
32790;SDS011;19143;59.322;14.502;2023-03-12T05:50:44;1.07;;;0.90;;
32790;SDS011;19143;59.322;14.502;2023-03-12T05:53:12;1.00;;;1.00;;
32790;SDS011;19143;59.322;14.502;2023-03-12T05:55:39;0.70;;;0.70;;
32790;SDS011;19143;59.322;14.502;2023-03-12T05:58:06;1.70;;;0.97;;
32790;SDS011;19143;59.322;14.502;2023-03-12T06:00:33;3.53;;;1.13;;
32790;SDS011;19143;59.322;14.502;2023-03-12T06:03:02;2.00;;;1.10;;
32790;SDS011;19143;59.322;14.502;2023-03-12T06:05:29;1.00;;;1.00;;
32790;SDS011;19143;59.322;14.502;2023-03-12T06:07:55;0.90;;;0.90;;
32790;SDS011;19143;59.322;14.502;2023-03-12T06:10:23;0.97;;;0.97;;
32790;SDS011;19143;59.322;14.502;2023-03-12T06:12:50;1.20;;;1.10;;
32790;SDS011;19143;59.322;14.502;2023-03-12T06:15:16;0.80;;;0.80;;
32790;SDS011;19143;59.322;14.502;2023-03-12T06:17:43;1.03;;;0.93;;
32790;SDS011;19143;59.322;14.502;2023-03-12T06:20:10;0.77;;;0.77;;
32790;SDS011;19143;59.322;14.502;2023-03-12T06:22:37;0.87;;;0.87;;
32790;SDS011;19143;59.322;14.502;2023-03-12T06:25:04;1.10;;;1.00;;
32790;SDS011;19143;59.322;14.502;2023-03-12T06:27:32;0.73;;;0.73;;
32790;SDS011;19143;59.322;14.502;2023-03-12T06:29:59;0.97;;;0.97;;
32790;SDS011;19143;59.322;14.502;2023-03-12T06:32:25;0.90;;;0.90;;
32790;SDS011;19143;59.322;14.502;2023-03-12T06:34:52;2.57;;;0.90;;
32790;SDS011;19143;59.322;14.502;2023-03-12T06:37:18;0.90;;;0.90;;
32790;SDS011;19143;59.322;14.502;2023-03-12T06:39:45;1.07;;;0.97;;
32790;SDS011;19143;59.322;14.502;2023-03-12T06:42:11;5.10;;;1.03;;
32790;SDS011;19143;59.322;14.502;2023-03-12T06:44:40;0.77;;;0.77;;
32790;SDS011;19143;59.322;14.502;2023-03-12T06:47:07;4.90;;;1.00;;
32790;SDS011;19143;59.322;14.502;2023-03-12T06:49:33;1.13;;;1.00;;
32790;SDS011;19143;59.322;14.502;2023-03-12T06:52:01;2.00;;;1.07;;
32790;SDS011;19143;59.322;14.502;2023-03-12T06:54:28;0.90;;;0.90;;
32790;SDS011;19143;59.322;14.502;2023-03-12T06:56:54;0.90;;;0.90;;
32790;SDS011;19143;59.322;14.502;2023-03-12T06:59:23;0.90;;;0.90;;
32790;SDS011;19143;59.322;14.502;2023-03-12T07:01:51;1.10;;;1.10;;
32790;SDS011;19143;59.322;14.502;2023-03-12T07:04:18;1.07;;;1.07;;
32790;SDS011;19143;59.322;14.502;2023-03-12T07:06:45;0.70;;;0.70;;
32790;SDS011;19143;59.322;14.502;2023-03-12T07:09:14;0.90;;;0.90;;
32790;SDS011;19143;59.322;14.502;2023-03-12T07:11:41;0.80;;;0.80;;
32790;SDS011;19143;59.322;14.502;2023-03-12T07:14:07;1.13;;;0.90;;
32790;SDS011;19143;59.322;14.502;2023-03-12T07:16:34;0.60;;;0.60;;
32790;SDS011;19143;59.322;14.502;2023-03-12T07:19:02;1.90;;;0.93;;
32790;SDS011;19143;59.322;14.502;2023-03-12T07:21:29;0.63;;;0.63;;
32790;SDS011;19143;59.322;14.502;2023-03-12T07:23:56;0.77;;;0.77;;
32790;SDS011;19143;59.322;14.502;2023-03-12T07:26:22;2.67;;;1.20;;
32790;SDS011;19143;59.322;14.502;2023-03-12T07:28:49;2.30;;;1.23;;
32790;SDS011;19143;59.322;14.502;2023-03-12T07:31:16;0.70;;;0.70;;
32790;SDS011;19143;59.322;14.502;2023-03-12T07:33:42;0.90;;;0.90;;
32790;SDS011;19143;59.322;14.502;2023-03-12T07:36:11;2.53;;;1.33;;
32790;SDS011;19143;59.322;14.502;2023-03-12T07:38:37;0.70;;;0.70;;
32790;SDS011;19143;59.322;14.502;2023-03-12T07:41:04;1.37;;;1.00;;
32790;SDS011;19143;59.322;14.502;2023-03-12T07:43:30;0.97;;;0.93;;
32790;SDS011;19143;59.322;14.502;2023-03-12T07:45:57;2.00;;;0.70;;
32790;SDS011;19143;59.322;14.502;2023-03-12T07:48:24;0.80;;;0.80;;
32790;SDS011;19143;59.322;14.502;2023-03-12T07:50:51;1.70;;;1.03;;
32790;SDS011;19143;59.322;14.502;2023-03-12T07:53:19;0.97;;;0.90;;
32790;SDS011;19143;59.322;14.502;2023-03-12T07:55:45;0.70;;;0.70;;
32790;SDS011;19143;59.322;14.502;2023-03-12T07:58:12;0.97;;;0.97;;
32790;SDS011;19143;59.322;14.502;2023-03-12T08:00:39;0.60;;;0.60;;
32790;SDS011;19143;59.322;14.502;2023-03-12T08:03:06;0.70;;;0.70;;
32790;SDS011;19143;59.322;14.502;2023-03-12T08:05:32;0.80;;;0.80;;
32790;SDS011;19143;59.322;14.502;2023-03-12T08:07:59;3.83;;;1.63;;
32790;SDS011;19143;59.322;14.502;2023-03-12T08:10:27;4.30;;;1.80;;
32790;SDS011;19143;59.322;14.502;2023-03-12T08:12:54;2.83;;;1.77;;
32790;SDS011;19143;59.322;14.502;2023-03-12T08:15:20;1.27;;;0.77;;
32790;SDS011;19143;59.322;14.502;2023-03-12T08:17:47;0.73;;;0.73;;
32790;SDS011;19143;59.322;14.502;2023-03-12T08:20:14;1.40;;;0.80;;
32790;SDS011;19143;59.322;14.502;2023-03-12T08:22:41;0.60;;;0.60;;
32790;SDS011;19143;59.322;14.502;2023-03-12T08:25:08;0.70;;;0.70;;
32790;SDS011;19143;59.322;14.502;2023-03-12T08:27:36;0.90;;;0.90;;
32790;SDS011;19143;59.322;14.502;2023-03-12T08:30:03;0.57;;;0.57;;
32790;SDS011;19143;59.322;14.502;2023-03-12T08:32:30;0.80;;;0.80;;
32790;SDS011;19143;59.322;14.502;2023-03-12T08:34:57;0.80;;;0.80;;
32790;SDS011;19143;59.322;14.502;2023-03-12T08:37:24;5.90;;;0.60;;
32790;SDS011;19143;59.322;14.502;2023-03-12T08:39:51;0.67;;;0.67;;
32790;SDS011;19143;59.322;14.502;2023-03-12T08:42:17;2.50;;;0.70;;
32790;SDS011;19143;59.322;14.502;2023-03-12T08:44:45;0.83;;;0.83;;
32790;SDS011;19143;59.322;14.502;2023-03-12T08:47:12;1.00;;;1.00;;
32790;SDS011;19143;59.322;14.502;2023-03-12T08:49:38;2.17;;;0.93;;
32790;SDS011;19143;59.322;14.502;2023-03-12T08:52:05;0.70;;;0.70;;
32790;SDS011;19143;59.322;14.502;2023-03-12T08:54:32;0.60;;;0.60;;
32790;SDS011;19143;59.322;14.502;2023-03-12T08:57:00;0.67;;;0.67;;
32790;SDS011;19143;59.322;14.502;2023-03-12T08:59:26;0.97;;;0.60;;
32790;SDS011;19143;59.322;14.502;2023-03-12T09:01:54;2.57;;;0.50;;
32790;SDS011;19143;59.322;14.502;2023-03-12T09:04:21;1.37;;;0.70;;
32790;SDS011;19143;59.322;14.502;2023-03-12T09:06:48;0.70;;;0.70;;
32790;SDS011;19143;59.322;14.502;2023-03-12T09:09:14;2.00;;;1.80;;
32790;SDS011;19143;59.322;14.502;2023-03-12T09:11:41;0.90;;;0.90;;
32790;SDS011;19143;59.322;14.502;2023-03-12T09:14:08;0.40;;;0.40;;
32790;SDS011;19143;59.322;14.502;2023-03-12T09:16:35;0.57;;;0.57;;
32790;SDS011;19143;59.322;14.502;2023-03-12T09:19:03;0.73;;;0.67;;
32790;SDS011;19143;59.322;14.502;2023-03-12T09:21:30;2.10;;;1.03;;
32790;SDS011;19143;59.322;14.502;2023-03-12T09:23:56;1.27;;;0.90;;
32790;SDS011;19143;59.322;14.502;2023-03-12T09:26:23;0.70;;;0.70;;
32790;SDS011;19143;59.322;14.502;2023-03-12T09:28:49;1.00;;;1.00;;
32790;SDS011;19143;59.322;14.502;2023-03-12T09:31:16;0.50;;;0.50;;
32790;SDS011;19143;59.322;14.502;2023-03-12T09:33:43;1.10;;;0.40;;
32790;SDS011;19143;59.322;14.502;2023-03-12T09:36:11;0.70;;;0.70;;
32790;SDS011;19143;59.322;14.502;2023-03-12T09:38:37;3.70;;;0.70;;
32790;SDS011;19143;59.322;14.502;2023-03-12T09:41:04;0.50;;;0.50;;
32790;SDS011;19143;59.322;14.502;2023-03-12T09:43:33;0.60;;;0.60;;
32790;SDS011;19143;59.322;14.502;2023-03-12T09:46:01;0.70;;;0.70;;
32790;SDS011;19143;59.322;14.502;2023-03-12T09:48:30;0.23;;;0.23;;
32790;SDS011;19143;59.322;14.502;2023-03-12T09:50:59;0.67;;;0.37;;
32790;SDS011;19143;59.322;14.502;2023-03-12T09:53:29;0.83;;;0.70;;
32790;SDS011;19143;59.322;14.502;2023-03-12T09:55:57;1.13;;;0.40;;
32790;SDS011;19143;59.322;14.502;2023-03-12T09:58:25;0.33;;;0.33;;
32790;SDS011;19143;59.322;14.502;2023-03-12T10:00:52;0.37;;;0.37;;
32790;SDS011;19143;59.322;14.502;2023-03-12T10:03:34;2.60;;;0.50;;
32790;SDS011;19143;59.322;14.502;2023-03-12T10:06:07;0.57;;;0.57;;
32790;SDS011;19143;59.322;14.502;2023-03-12T10:08:40;0.40;;;0.40;;
32790;SDS011;19143;59.322;14.502;2023-03-12T10:11:11;0.60;;;0.60;;
32790;SDS011;19143;59.322;14.502;2023-03-12T10:13:46;0.50;;;0.50;;
32790;SDS011;19143;59.322;14.502;2023-03-12T10:16:19;0.50;;;0.50;;
32790;SDS011;19143;59.322;14.502;2023-03-12T10:18:55;0.67;;;0.53;;
32790;SDS011;19143;59.322;14.502;2023-03-12T10:21:28;0.47;;;0.47;;
32790;SDS011;19143;59.322;14.502;2023-03-12T10:26:43;0.60;;;0.60;;
32790;SDS011;19143;59.322;14.502;2023-03-12T10:29:11;0.50;;;0.50;;
32790;SDS011;19143;59.322;14.502;2023-03-12T10:31:42;0.50;;;0.50;;
32790;SDS011;19143;59.322;14.502;2023-03-12T10:34:13;0.50;;;0.50;;
32790;SDS011;19143;59.322;14.502;2023-03-12T10:36:41;0.43;;;0.43;;
32790;SDS011;19143;59.322;14.502;2023-03-12T10:39:11;0.50;;;0.50;;
32790;SDS011;19143;59.322;14.502;2023-03-12T10:41:40;0.40;;;0.40;;
32790;SDS011;19143;59.322;14.502;2023-03-12T10:44:08;0.40;;;0.40;;
32790;SDS011;19143;59.322;14.502;2023-03-12T10:46:46;0.57;;;0.40;;
32790;SDS011;19143;59.322;14.502;2023-03-12T10:49:29;0.53;;;0.50;;
32790;SDS011;19143;59.322;14.502;2023-03-12T10:51:57;0.40;;;0.40;;
32790;SDS011;19143;59.322;14.502;2023-03-12T10:54:27;0.47;;;0.47;;
32790;SDS011;19143;59.322;14.502;2023-03-12T10:56:54;0.70;;;0.70;;
32790;SDS011;19143;59.322;14.502;2023-03-12T10:59:24;0.50;;;0.50;;
32790;SDS011;19143;59.322;14.502;2023-03-12T11:01:52;1.70;;;0.60;;
32790;SDS011;19143;59.322;14.502;2023-03-12T11:04:20;0.63;;;0.60;;
32790;SDS011;19143;59.322;14.502;2023-03-12T11:09:33;0.50;;;0.50;;
32790;SDS011;19143;59.322;14.502;2023-03-12T11:12:00;0.50;;;0.50;;
32790;SDS011;19143;59.322;14.502;2023-03-12T11:14:28;0.70;;;0.70;;
32790;SDS011;19143;59.322;14.502;2023-03-12T11:16:55;0.50;;;0.50;;
32790;SDS011;19143;59.322;14.502;2023-03-12T11:19:26;1.20;;;0.63;;
32790;SDS011;19143;59.322;14.502;2023-03-12T11:22:01;0.73;;;0.50;;
32790;SDS011;19143;59.322;14.502;2023-03-12T11:24:28;0.40;;;0.40;;
32790;SDS011;19143;59.322;14.502;2023-03-12T11:26:56;0.53;;;0.53;;
32790;SDS011;19143;59.322;14.502;2023-03-12T11:29:25;0.50;;;0.50;;
32790;SDS011;19143;59.322;14.502;2023-03-12T11:31:57;0.30;;;0.30;;
32790;SDS011;19143;59.322;14.502;2023-03-12T11:34:25;0.30;;;0.30;;
32790;SDS011;19143;59.322;14.502;2023-03-12T11:36:54;0.30;;;0.30;;
32790;SDS011;19143;59.322;14.502;2023-03-12T11:39:27;1.53;;;0.70;;
32790;SDS011;19143;59.322;14.502;2023-03-12T11:42:02;0.50;;;0.50;;
32790;SDS011;19143;59.322;14.502;2023-03-12T11:44:33;0.40;;;0.40;;
32790;SDS011;19143;59.322;14.502;2023-03-12T11:47:12;0.97;;;0.60;;
32790;SDS011;19143;59.322;14.502;2023-03-12T11:52:34;0.83;;;0.83;;
32790;SDS011;19143;59.322;14.502;2023-03-12T11:57:47;0.60;;;0.60;;
32790;SDS011;19143;59.322;14.502;2023-03-12T12:00:18;0.40;;;0.40;;
32790;SDS011;19143;59.322;14.502;2023-03-12T12:05:38;0.40;;;0.40;;
32790;SDS011;19143;59.322;14.502;2023-03-12T12:08:19;0.70;;;0.70;;
32790;SDS011;19143;59.322;14.502;2023-03-12T12:10:52;2.93;;;0.57;;
32790;SDS011;19143;59.322;14.502;2023-03-12T12:13:24;1.50;;;1.20;;
32790;SDS011;19143;59.322;14.502;2023-03-12T12:15:55;0.43;;;0.43;;
32790;SDS011;19143;59.322;14.502;2023-03-12T12:18:27;0.90;;;0.90;;
32790;SDS011;19143;59.322;14.502;2023-03-12T12:20:59;0.53;;;0.53;;
32790;SDS011;19143;59.322;14.502;2023-03-12T12:23:33;0.60;;;0.60;;
32790;SDS011;19143;59.322;14.502;2023-03-12T12:26:08;1.03;;;0.60;;
32790;SDS011;19143;59.322;14.502;2023-03-12T12:28:51;0.60;;;0.60;;
32790;SDS011;19143;59.322;14.502;2023-03-12T12:31:21;0.70;;;0.70;;
32790;SDS011;19143;59.322;14.502;2023-03-12T12:33:57;0.50;;;0.50;;
32790;SDS011;19143;59.322;14.502;2023-03-12T12:36:30;0.63;;;0.40;;
32790;SDS011;19143;59.322;14.502;2023-03-12T12:39:02;0.50;;;0.50;;
32790;SDS011;19143;59.322;14.502;2023-03-12T12:41:31;0.50;;;0.50;;
32790;SDS011;19143;59.322;14.502;2023-03-12T12:44:00;0.50;;;0.50;;
32790;SDS011;19143;59.322;14.502;2023-03-12T12:46:29;3.33;;;0.50;;
32790;SDS011;19143;59.322;14.502;2023-03-12T12:48:58;0.50;;;0.50;;
32790;SDS011;19143;59.322;14.502;2023-03-12T12:51:29;0.70;;;0.70;;
32790;SDS011;19143;59.322;14.502;2023-03-12T12:53:59;0.50;;;0.50;;
32790;SDS011;19143;59.322;14.502;2023-03-12T12:56:27;2.10;;;0.50;;
32790;SDS011;19143;59.322;14.502;2023-03-12T12:59:01;0.60;;;0.60;;
32790;SDS011;19143;59.322;14.502;2023-03-12T13:01:31;0.60;;;0.60;;
32790;SDS011;19143;59.322;14.502;2023-03-12T13:04:01;4.33;;;0.57;;
32790;SDS011;19143;59.322;14.502;2023-03-12T13:06:43;1.33;;;0.57;;
32790;SDS011;19143;59.322;14.502;2023-03-12T13:09:20;0.53;;;0.53;;
32790;SDS011;19143;59.322;14.502;2023-03-12T13:11:47;1.60;;;0.50;;
32790;SDS011;19143;59.322;14.502;2023-03-12T13:14:20;0.37;;;0.37;;
32790;SDS011;19143;59.322;14.502;2023-03-12T13:16:47;0.53;;;0.53;;
32790;SDS011;19143;59.322;14.502;2023-03-12T13:19:21;0.57;;;0.57;;
32790;SDS011;19143;59.322;14.502;2023-03-12T13:21:51;0.30;;;0.30;;
32790;SDS011;19143;59.322;14.502;2023-03-12T13:24:22;0.40;;;0.40;;
32790;SDS011;19143;59.322;14.502;2023-03-12T13:26:52;0.47;;;0.47;;
32790;SDS011;19143;59.322;14.502;2023-03-12T13:29:22;0.80;;;0.63;;
32790;SDS011;19143;59.322;14.502;2023-03-12T13:32:01;0.60;;;0.60;;
32790;SDS011;19143;59.322;14.502;2023-03-12T13:37:16;0.50;;;0.50;;
32790;SDS011;19143;59.322;14.502;2023-03-12T13:39:45;0.60;;;0.60;;
32790;SDS011;19143;59.322;14.502;2023-03-12T13:47:57;0.40;;;0.40;;
32790;SDS011;19143;59.322;14.502;2023-03-12T13:50:25;1.63;;;0.70;;
32790;SDS011;19143;59.322;14.502;2023-03-12T13:52:56;1.30;;;0.53;;
32790;SDS011;19143;59.322;14.502;2023-03-12T13:55:27;0.87;;;0.60;;
32790;SDS011;19143;59.322;14.502;2023-03-12T13:57:55;0.40;;;0.40;;
32790;SDS011;19143;59.322;14.502;2023-03-12T14:00:24;1.43;;;0.40;;
32790;SDS011;19143;59.322;14.502;2023-03-12T14:02:52;0.50;;;0.50;;
32790;SDS011;19143;59.322;14.502;2023-03-12T14:05:27;0.50;;;0.50;;
32790;SDS011;19143;59.322;14.502;2023-03-12T14:08:02;1.33;;;0.60;;
32790;SDS011;19143;59.322;14.502;2023-03-12T14:10:39;0.40;;;0.40;;
32790;SDS011;19143;59.322;14.502;2023-03-12T14:13:12;0.40;;;0.40;;
32790;SDS011;19143;59.322;14.502;2023-03-12T14:15:43;0.63;;;0.63;;
32790;SDS011;19143;59.322;14.502;2023-03-12T14:18:13;0.97;;;0.37;;
32790;SDS011;19143;59.322;14.502;2023-03-12T14:20:41;1.00;;;0.90;;
32790;SDS011;19143;59.322;14.502;2023-03-12T14:23:12;3.27;;;1.57;;
32790;SDS011;19143;59.322;14.502;2023-03-12T14:25:43;0.57;;;0.57;;
32790;SDS011;19143;59.322;14.502;2023-03-12T14:28:10;0.50;;;0.50;;
32790;SDS011;19143;59.322;14.502;2023-03-12T14:30:41;1.17;;;0.70;;
32790;SDS011;19143;59.322;14.502;2023-03-12T14:33:10;0.60;;;0.53;;
32790;SDS011;19143;59.322;14.502;2023-03-12T14:35:39;0.50;;;0.50;;
32790;SDS011;19143;59.322;14.502;2023-03-12T14:38:10;3.17;;;0.60;;
32790;SDS011;19143;59.322;14.502;2023-03-12T14:40:40;1.00;;;1.00;;
32790;SDS011;19143;59.322;14.502;2023-03-12T14:43:19;0.53;;;0.53;;
32790;SDS011;19143;59.322;14.502;2023-03-12T14:45:48;0.40;;;0.40;;
32790;SDS011;19143;59.322;14.502;2023-03-12T14:48:15;1.30;;;0.83;;
32790;SDS011;19143;59.322;14.502;2023-03-12T14:50:45;0.80;;;0.80;;
32790;SDS011;19143;59.322;14.502;2023-03-12T14:53:16;0.80;;;0.80;;
32790;SDS011;19143;59.322;14.502;2023-03-12T14:55:43;0.77;;;0.77;;
32790;SDS011;19143;59.322;14.502;2023-03-12T14:58:14;1.10;;;0.80;;
32790;SDS011;19143;59.322;14.502;2023-03-12T15:00:43;0.37;;;0.37;;
32790;SDS011;19143;59.322;14.502;2023-03-12T15:03:12;0.40;;;0.40;;